This is the latest recevied weather packets stored in our database for station/object AC0YE. If no packets are shown the sender has not sent any weather packets the latest 10 day(s).
| Time | Temp. | Humidity | Pressure | Rain* | Wind** | Luminosity | Snow |
|---|---|---|---|---|---|---|---|
| 1777316117 | 21.11° C | 78% | 1000.5 hPa | 0 mm | - | - | - |
| 1777311617 | 18.89° C | 83% | 1001.2 hPa | 0 mm | - | - | - |
| 1777309817 | 19.44° C | 83% | 1000.3 hPa | 0 mm | - | - | - |
| 1777306817 | 16.67° C | 92% | 998.2 hPa | 0 mm | - | - | - |
| 1777304416 | 15° C | 96% | 997.8 hPa | 0.76 mm | - | - | - |
| 1777302617 | 14.44° C | 96% | 995.2 hPa | 2.54 mm | - | - | - |
| 1777300516 | 14.44° C | 96% | 1002.8 hPa | 7.87 mm | - | - | - |
| 1777297256 | 14.44° C | 94% | 1005.5 hPa | 8.38 mm | - | - | - |
| 1777296616 | 14.44° C | 94% | 1005.6 hPa | 7.37 mm | - | - | - |
| 1777296316 | 14.44° C | 94% | 1005.5 hPa | 6.6 mm | - | - | - |
| 1777294816 | 15° C | 91% | 1005.2 hPa | 1.52 mm | - | - | - |
| 1777293316 | 15° C | 87% | 1004.9 hPa | 0.51 mm | - | - | - |
| 1777293016 | 15.56° C | 87% | 1005.1 hPa | 0.25 mm | - | - | - |
| 1777291516 | 15° C | 87% | 1005.1 hPa | 0.25 mm | - | - | - |
| 1777291236 | 15° C | 86% | 1004.9 hPa | 0.25 mm | - | - | - |
| 1777290916 | 15° C | 86% | 1004.9 hPa | 0.25 mm | - | - | - |
| 1777289716 | 15° C | 84% | 1005.2 hPa | 0 mm | - | - | - |
| 1777289116 | 15° C | 85% | 1005.3 hPa | 0 mm | - | - | - |
| 1777286136 | 13.89° C | 84% | 1005.9 hPa | 0 mm | - | - | - |
| 1777284616 | 14.44° C | 83% | 1006.7 hPa | 0 mm | - | - | - |
| 1777281336 | 13.89° C | 83% | 1007.1 hPa | 0 mm | - | - | - |
| 1777280416 | 13.89° C | 83% | 1007.2 hPa | 0 mm | - | - | - |
| 1777279816 | 13.89° C | 83% | 1007.2 hPa | 0 mm | - | - | - |
| 1777277716 | 13.89° C | 83% | 1007.3 hPa | 0 mm | - | - | - |
| 1777274416 | 15° C | 81% | 1008.2 hPa | 0 mm | - | - | - |
* Rain latest hour (hover to see other rain measurements)
** Current wind speed in m/s (hover to see current wind gust speed)